Time;durP1;ratioP1;P1;durP2;ratioP2;P2;SDS_P1;SDS_P2;PMS_P1;PMS_P2;Temp;Humidity;BMP_temperature;BMP_pressure;BME280_temperature;BME280_humidity;BME280_pressure;Samples;Min_cycle;Max_cycle;Signal;HPM_P1;HPM_P2
2023/02/05 00:02:09;;;;;;;42.33;13.43;;;6.20;99.90;;;;;;5032329;28;20062;-52
2023/02/05 00:04:36;;;;;;;39.85;12.57;;;6.10;99.90;;;;;;5032214;28;20461;-54
2023/02/05 00:07:03;;;;;;;43.93;13.57;;;6.20;99.90;;;;;;5032536;28;20116;-54
2023/02/05 00:09:28;;;;;;;41.97;13.90;;;6.20;99.90;;;;;;5032122;28;20448;-52
2023/02/05 00:11:55;;;;;;;36.60;13.17;;;6.20;99.90;;;;;;5032059;28;20025;-55
2023/02/05 00:14:21;;;;;;;37.57;12.63;;;6.10;99.90;;;;;;5031949;28;20087;-53
2023/02/05 00:16:47;;;;;;;41.03;13.50;;;6.10;99.90;;;;;;5031784;28;20429;-52
2023/02/05 00:19:12;;;;;;;46.27;15.40;;;6.00;99.90;;;;;;5032038;28;20090;-54
2023/02/05 00:21:38;;;;;;;42.67;12.77;;;5.90;99.90;;;;;;5031240;28;20029;-54
2023/02/05 00:24:04;;;;;;;40.93;13.17;;;5.90;99.90;;;;;;5031781;28;20478;-53
2023/02/05 00:26:30;;;;;;;47.10;14.10;;;5.90;99.90;;;;;;5031625;28;20117;-52
2023/02/05 00:28:56;;;;;;;42.17;13.03;;;5.90;99.90;;;;;;5031679;28;20029;-53
2023/02/05 00:31:23;;;;;;;44.33;14.27;;;6.00;99.90;;;;;;5031840;28;20029;-52
2023/02/05 00:33:50;;;;;;;43.70;13.40;;;5.90;99.90;;;;;;5030451;28;20056;-54
2023/02/05 00:36:17;;;;;;;43.03;13.20;;;6.00;99.90;;;;;;5031710;28;20025;-53
2023/02/05 00:38:44;;;;;;;38.40;13.00;;;5.90;99.90;;;;;;5030125;28;20026;-52
2023/02/05 00:41:11;;;;;;;38.57;14.13;;;6.00;99.90;;;;;;5031635;28;20124;-53
2023/02/05 00:43:38;;;;;;;44.00;13.90;;;6.00;99.90;;;;;;5031394;28;20570;-54
2023/02/05 00:46:04;;;;;;;41.27;13.53;;;5.90;99.90;;;;;;5031732;28;20036;-51
2023/02/05 00:48:30;;;;;;;49.83;19.07;;;6.00;99.90;;;;;;5031275;28;20030;-55
2023/02/05 00:50:57;;;;;;;41.43;13.67;;;6.00;99.90;;;;;;5030090;28;20044;-56
2023/02/05 00:53:25;;;;;;;42.00;13.10;;;6.00;99.90;;;;;;5031212;28;20445;-54
2023/02/05 00:55:51;;;;;;;43.73;12.73;;;5.90;99.90;;;;;;5030081;28;20076;-55
2023/02/05 00:58:19;;;;;;;42.73;12.80;;;6.00;99.90;;;;;;5031129;28;20452;-55
2023/02/05 01:00:45;;;;;;;43.27;12.70;;;6.00;99.90;;;;;;5031177;28;20108;-55
2023/02/05 01:03:11;;;;;;;45.57;12.83;;;5.90;99.90;;;;;;5031266;28;20052;-53
2023/02/05 01:05:38;;;;;;;39.33;13.00;;;5.90;99.90;;;;;;5031049;28;20033;-53
2023/02/05 01:08:06;;;;;;;45.40;12.70;;;5.80;99.90;;;;;;5030793;28;20033;-52
2023/02/05 01:10:33;;;;;;;46.80;13.18;;;5.80;99.90;;;;;;5029704;28;20021;-53
2023/02/05 01:12:59;;;;;;;48.07;13.13;;;5.80;99.90;;;;;;5031137;28;20448;-54
2023/02/05 01:15:25;;;;;;;36.87;13.03;;;5.90;99.90;;;;;;5030999;28;20030;-54
2023/02/05 01:17:51;;;;;;;36.63;13.57;;;5.90;99.90;;;;;;5030792;28;20036;-55
2023/02/05 01:20:17;;;;;;;41.10;12.47;;;6.00;99.90;;;;;;5029540;28;20041;-54
2023/02/05 01:22:43;;;;;;;36.30;13.17;;;5.90;99.90;;;;;;5029558;28;20033;-53
2023/02/05 01:25:09;;;;;;;39.37;13.73;;;5.90;99.90;;;;;;5030961;28;20029;-55
2023/02/05 01:27:36;;;;;;;46.70;14.00;;;5.90;99.90;;;;;;5029549;28;20064;-52
2023/02/05 01:30:02;;;;;;;42.47;13.20;;;5.80;99.90;;;;;;5029281;28;20045;-52
2023/02/05 01:32:29;;;;;;;52.77;15.97;;;5.80;99.90;;;;;;5030656;28;20080;-53
2023/02/05 01:34:55;;;;;;;46.17;15.17;;;5.80;99.90;;;;;;5029332;28;20110;-53
2023/02/05 01:37:21;;;;;;;39.70;12.77;;;5.80;99.90;;;;;;5030469;28;20025;-53
2023/02/05 01:39:46;;;;;;;41.60;13.53;;;5.80;99.90;;;;;;5030581;28;20032;-51
2023/02/05 01:42:22;;;;;;;36.70;13.40;;;5.80;99.90;;;;;;5030656;28;20069;-53
2023/02/05 01:45:20;;;;;;;42.13;14.07;;;5.80;99.90;;;;;;5030528;28;20033;-55
2023/02/05 01:47:47;;;;;;;46.53;12.87;;;5.80;99.90;;;;;;5030156;28;20037;-53
2023/02/05 01:50:14;;;;;;;43.33;13.13;;;5.80;99.90;;;;;;5029128;28;20033;-54
2023/02/05 01:52:40;;;;;;;48.97;13.47;;;5.80;99.90;;;;;;5030497;28;20027;-53
2023/02/05 01:55:07;;;;;;;39.33;11.93;;;5.80;99.90;;;;;;5030371;28;20393;-54
2023/02/05 01:57:35;;;;;;;42.10;13.00;;;5.90;99.90;;;;;;5030443;28;20028;-54
2023/02/05 02:00:02;;;;;;;33.83;12.30;;;5.90;99.90;;;;;;5028902;28;20033;-55
2023/02/05 02:02:29;;;;;;;43.13;13.13;;;5.90;99.90;;;;;;5029082;28;20147;-56
2023/02/05 02:04:59;;;;;;;38.10;12.80;;;5.90;99.90;;;;;;5030255;28;20034;-54
2023/02/05 02:07:25;;;;;;;43.43;14.10;;;5.90;99.90;;;;;;5030145;28;20025;-54
2023/02/05 02:09:52;;;;;;;44.20;12.40;;;5.90;99.90;;;;;;5030130;28;20401;-53
2023/02/05 02:12:25;;;;;;;42.70;12.10;;;5.90;99.90;;;;;;5030257;28;20040;-54
2023/02/05 02:14:54;;;;;;;42.30;13.07;;;5.90;99.90;;;;;;5030123;28;20051;-54
2023/02/05 02:17:20;;;;;;;41.50;12.38;;;5.90;99.90;;;;;;5028812;28;20025;-53
2023/02/05 02:19:59;;;;;;;44.73;12.43;;;5.90;99.90;;;;;;5028968;28;20065;-54
2023/02/05 02:22:44;;;;;;;40.30;13.35;;;5.90;99.90;;;;;;5030262;28;20025;-53
2023/02/05 02:25:44;;;;;;;41.27;12.47;;;5.90;99.90;;;;;;5028574;28;20033;-55
2023/02/05 02:28:18;;;;;;;40.83;13.07;;;5.90;99.90;;;;;;5029911;28;20030;-50
2023/02/05 02:31:02;;;;;;;41.87;12.77;;;6.00;99.90;;;;;;5028727;28;20040;-54
2023/02/05 02:33:34;;;;;;;41.40;13.10;;;6.00;99.90;;;;;;5028606;28;20021;-54
2023/02/05 02:36:09;;;;;;;42.20;13.23;;;6.00;99.90;;;;;;5029055;28;20118;-53
2023/02/05 02:39:15;;;;;;;45.87;12.97;;;6.00;99.90;;;;;;5030065;28;20039;-54
2023/02/05 02:41:54;;;;;;;40.37;13.03;;;6.00;99.90;;;;;;4966052;28;20188;-56
2023/02/05 02:44:32;;;;;;;53.20;13.17;;;6.00;99.90;;;;;;5030167;28;20025;-55
2023/02/05 02:47:04;;;;;;;40.30;13.60;;;5.90;99.90;;;;;;5032341;28;20030;-55
2023/02/05 02:49:39;;;;;;;44.20;13.67;;;5.80;99.90;;;;;;5033549;28;20120;-53
2023/02/05 02:52:07;;;;;;;42.87;14.17;;;5.80;99.90;;;;;;5032386;28;20082;-53
2023/02/05 02:54:36;;;;;;;46.33;14.80;;;5.80;99.90;;;;;;5033518;28;20026;-56
2023/02/05 02:57:05;;;;;;;;;;;5.70;99.90;;;;;;5032788;28;20029;-54
2023/02/05 02:59:34;;;;;;;37.80;13.07;;;5.70;99.90;;;;;;5033564;28;19909;-55
2023/02/05 03:02:03;;;;;;;48.60;14.25;;;5.70;99.90;;;;;;5032286;28;20033;-53
2023/02/05 03:04:43;;;;;;;50.75;15.40;;;5.70;99.90;;;;;;5032013;28;20037;-52
2023/02/05 03:07:21;;;;;;;48.27;14.53;;;5.70;99.90;;;;;;5031986;28;20036;-55
2023/02/05 03:10:02;;;;;;;42.40;15.33;;;5.70;99.90;;;;;;5031884;28;20061;-55
2023/02/05 03:12:29;;;;;;;47.27;15.60;;;5.70;99.90;;;;;;5032061;28;20394;-54
2023/02/05 03:14:56;;;;;;;51.33;14.60;;;5.70;99.90;;;;;;5033238;28;20151;-55
2023/02/05 03:17:24;;;;;;;48.30;14.10;;;5.70;99.90;;;;;;5031752;28;20418;-51
2023/02/05 03:19:58;;;;;;;42.80;12.97;;;5.70;99.90;;;;;;5033148;28;20478;-54
2023/02/05 03:22:24;;;;;;;37.47;13.10;;;5.80;99.90;;;;;;5031962;28;20029;-53
2023/02/05 03:24:51;;;;;;;42.40;13.63;;;5.90;99.90;;;;;;5031629;28;20401;-53
2023/02/05 03:27:18;;;;;;;42.30;13.83;;;5.90;99.90;;;;;;5031611;28;20030;-55
2023/02/05 03:29:45;;;;;;;40.43;13.77;;;5.90;99.90;;;;;;5031466;28;20123;-51
2023/02/05 03:32:42;;;;;;;44.10;14.80;;;5.90;99.90;;;;;;5031736;28;20039;-54
2023/02/05 03:35:25;;;;;;;52.27;14.63;;;5.90;99.90;;;;;;5032872;28;20167;-52
2023/02/05 03:38:21;;;;;;;44.63;13.57;;;6.00;99.90;;;;;;5031512;28;20164;-54
2023/02/05 03:40:52;;;;;;;48.93;14.67;;;6.00;99.90;;;;;;5031426;28;20025;-52
2023/02/05 03:43:59;;;;;;;44.77;14.17;;;6.10;99.90;;;;;;5031389;28;20029;-54
2023/02/05 03:46:52;;;;;;;50.10;14.17;;;6.10;99.90;;;;;;5031223;28;20026;-52
2023/02/05 03:50:16;;;;;;;50.77;13.67;;;6.20;99.90;;;;;;5044134;23;20256;-48
2023/02/05 03:52:53;;;;;;;39.20;13.57;;;6.20;99.90;;;;;;4955436;28;20062;-46
2023/02/05 03:55:27;;;;;;;46.23;14.17;;;6.20;99.90;;;;;;4953587;28;20431;-50
2023/02/05 03:58:12;;;;;;;45.23;14.17;;;6.30;99.90;;;;;;4999891;28;20034;-50
2023/02/05 04:00:39;;;;;;;45.93;15.33;;;6.30;99.90;;;;;;5015104;28;20470;-50
2023/02/05 04:03:05;;;;;;;43.90;15.97;;;6.30;99.90;;;;;;5031253;28;20109;-52
2023/02/05 04:05:33;;;;;;;56.90;18.90;;;6.30;99.90;;;;;;5031059;28;20025;-49
2023/02/05 04:08:00;;;;;;;54.90;18.77;;;6.40;99.90;;;;;;5030808;28;20025;-49
2023/02/05 04:10:32;;;;;;;62.17;23.27;;;6.40;99.90;;;;;;5030980;28;20649;-47
2023/02/05 04:13:00;;;;;;;71.83;25.90;;;6.40;99.90;;;;;;5030988;28;20033;-46
2023/02/05 04:15:26;;;;;;;72.87;26.07;;;6.50;99.90;;;;;;5030793;28;20120;-47
2023/02/05 04:17:56;;;;;;;74.73;25.50;;;6.50;99.90;;;;;;5030817;28;20060;-50
2023/02/05 04:20:24;;;;;;;92.55;28.90;;;6.60;99.90;;;;;;5030764;28;20448;-51
2023/02/05 04:22:49;;;;;;;95.43;29.23;;;6.60;99.90;;;;;;5030845;28;20034;-50
2023/02/05 04:25:15;;;;;;;104.37;33.27;;;6.60;99.90;;;;;;5030416;28;20028;-48
2023/02/05 04:27:42;;;;;;;93.07;30.50;;;6.60;99.90;;;;;;5030533;28;20078;-47
2023/02/05 04:30:09;;;;;;;101.27;31.87;;;6.50;99.90;;;;;;5030448;28;20075;-49
2023/02/05 04:32:39;;;;;;;102.93;32.33;;;6.60;99.90;;;;;;5030740;28;20824;-47
2023/02/05 04:35:05;;;;;;;96.20;31.73;;;6.60;99.90;;;;;;5030484;28;20025;-49
2023/02/05 04:37:31;;;;;;;96.23;32.03;;;6.60;99.90;;;;;;5030322;28;20093;-49
2023/02/05 04:39:58;;;;;;;100.87;34.10;;;6.60;99.90;;;;;;5030276;28;20553;-48
2023/02/05 04:42:24;;;;;;;111.27;34.37;;;6.60;99.90;;;;;;5031817;28;20120;-49
2023/02/05 04:44:51;;;;;;;107.40;36.60;;;6.60;99.90;;;;;;5031836;28;20037;-50
2023/02/05 04:47:17;;;;;;;115.37;36.40;;;6.60;99.90;;;;;;5031678;28;20040;-48
2023/02/05 04:49:43;;;;;;;107.67;36.43;;;6.60;99.90;;;;;;5031646;28;20033;-48
2023/02/05 04:52:08;;;;;;;111.67;35.33;;;6.60;99.90;;;;;;5031718;28;20482;-52
2023/02/05 04:54:36;;;;;;;104.93;35.13;;;6.60;99.90;;;;;;5031468;28;20445;-48
2023/02/05 04:57:01;;;;;;;98.90;33.80;;;6.60;99.90;;;;;;5031499;28;20079;-50
2023/02/05 04:59:29;;;;;;;104.63;33.83;;;6.60;99.90;;;;;;5031665;28;20433;-51
2023/02/05 05:01:55;;;;;;;103.63;34.13;;;6.60;99.90;;;;;;5031745;28;20075;-48
2023/02/05 05:04:20;;;;;;;110.13;33.10;;;6.70;99.90;;;;;;5031496;28;20037;-49
2023/02/05 05:06:46;;;;;;;101.40;32.33;;;6.70;99.90;;;;;;5031054;28;20108;-51
2023/02/05 05:09:12;;;;;;;98.73;32.87;;;6.70;99.90;;;;;;5031294;28;20474;-51
2023/02/05 05:11:38;;;;;;;97.57;32.87;;;6.70;99.90;;;;;;5031450;28;20029;-50
2023/02/05 05:14:04;;;;;;;93.87;32.27;;;6.70;99.90;;;;;;5031341;28;20040;-53
2023/02/05 05:16:30;;;;;;;91.37;31.50;;;6.80;99.90;;;;;;5031206;28;20029;-50
2023/02/05 05:18:55;;;;;;;97.97;31.97;;;6.70;99.90;;;;;;5031394;28;20032;-49
2023/02/05 05:21:21;;;;;;;95.00;32.40;;;6.70;99.90;;;;;;5031164;28;20060;-48
2023/02/05 05:23:47;;;;;;;94.70;32.23;;;6.80;99.90;;;;;;5030985;28;20074;-51
2023/02/05 05:26:12;;;;;;;95.67;32.87;;;6.80;99.90;;;;;;5031400;28;20034;-52
2023/02/05 05:28:38;;;;;;;96.93;32.50;;;6.80;99.90;;;;;;5030827;28;20112;-51
2023/02/05 05:31:16;;;;;;;97.57;31.53;;;6.70;99.90;;;;;;5031166;28;20456;-48
2023/02/05 05:33:42;;;;;;;97.60;30.47;;;6.70;99.90;;;;;;5030955;28;20025;-52
2023/02/05 05:36:08;;;;;;;106.03;35.73;;;6.70;99.90;;;;;;5030939;28;20032;-48
2023/02/05 05:38:34;;;;;;;100.77;34.67;;;6.70;99.90;;;;;;5030650;28;20053;-50
2023/02/05 05:43:47;;;;;;;99.30;33.37;;;6.80;99.90;;;;;;5030662;28;20045;-51
2023/02/05 05:46:22;;;;;;;99.38;34.67;;;6.80;99.90;;;;;;5030881;28;20055;-48
2023/02/05 05:48:57;;;;;;;99.63;33.10;;;6.80;99.90;;;;;;5030647;28;20057;-51
2023/02/05 05:51:24;;;;;;;100.67;34.33;;;6.80;99.90;;;;;;5030640;28;20446;-48
2023/02/05 05:53:50;;;;;;;94.60;34.17;;;6.80;99.90;;;;;;5030529;28;20018;-51
2023/02/05 05:56:16;;;;;;;105.10;35.90;;;6.80;99.90;;;;;;5030482;28;20026;-51
2023/02/05 05:58:43;;;;;;;98.87;34.20;;;6.80;99.90;;;;;;5030432;28;20371;-48
2023/02/05 06:01:10;;;;;;;101.53;34.63;;;6.80;99.90;;;;;;5030263;28;20048;-52
2023/02/05 06:03:36;;;;;;;99.93;34.67;;;6.80;99.90;;;;;;5030066;28;20052;-51
2023/02/05 06:06:06;;;;;;;106.60;34.83;;;6.80;99.90;;;;;;5030163;28;20037;-49
2023/02/05 06:08:32;;;;;;;103.83;35.10;;;6.80;99.90;;;;;;5029999;28;20042;-55
2023/02/05 06:10:58;;;;;;;102.97;34.70;;;6.80;99.90;;;;;;5030138;28;20483;-52
2023/02/05 06:13:24;;;;;;;101.20;34.83;;;6.70;99.90;;;;;;5030092;28;20340;-52
2023/02/05 06:15:50;;;;;;;99.40;34.83;;;6.70;99.90;;;;;;5030078;28;20078;-52
2023/02/05 06:18:17;;;;;;;100.17;37.70;;;6.80;99.90;;;;;;5029890;28;20449;-54
2023/02/05 06:20:43;;;;;;;100.80;35.23;;;6.80;99.90;;;;;;5033971;28;20445;-51
2023/02/05 06:23:09;;;;;;;104.80;37.03;;;6.80;99.90;;;;;;5034117;28;20116;-51
2023/02/05 06:25:34;;;;;;;100.53;36.67;;;6.70;99.90;;;;;;5033857;28;20041;-52
2023/02/05 06:28:00;;;;;;;103.93;37.90;;;6.80;99.90;;;;;;5033838;28;20025;-54
2023/02/05 06:30:26;;;;;;;99.87;35.30;;;6.80;99.90;;;;;;5033822;28;20261;-53
2023/02/05 06:32:52;;;;;;;98.43;38.13;;;6.70;99.90;;;;;;5033857;28;20037;-54
2023/02/05 06:35:17;;;;;;;96.80;37.07;;;6.80;99.90;;;;;;5033577;28;20064;-51
2023/02/05 06:37:43;;;;;;;91.50;36.10;;;6.80;99.90;;;;;;5033778;28;20028;-52
2023/02/05 06:40:09;;;;;;;95.73;36.57;;;6.80;99.90;;;;;;5033959;28;20692;-52
2023/02/05 06:42:35;;;;;;;96.67;37.50;;;6.80;99.90;;;;;;5033929;28;20181;-53
2023/02/05 06:45:02;;;;;;;97.03;37.50;;;6.80;99.90;;;;;;5033719;28;20029;-52
2023/02/05 06:47:27;;;;;;;91.40;34.97;;;6.80;99.90;;;;;;5033651;28;20037;-50
2023/02/05 06:49:53;;;;;;;89.40;34.97;;;6.80;99.90;;;;;;5033598;28;20041;-53
2023/02/05 06:52:19;;;;;;;89.70;35.20;;;6.80;99.90;;;;;;5033724;28;20486;-50
2023/02/05 06:54:44;;;;;;;88.23;35.13;;;6.80;99.90;;;;;;5033643;28;20187;-52
2023/02/05 06:57:10;;;;;;;81.80;33.37;;;6.80;99.90;;;;;;5033503;28;20026;-50
2023/02/05 06:59:36;;;;;;;86.60;32.90;;;6.80;99.90;;;;;;5033510;28;20116;-51
2023/02/05 07:02:03;;;;;;;83.37;33.93;;;6.80;99.90;;;;;;5033657;28;20175;-51
2023/02/05 07:04:32;;;;;;;82.90;32.50;;;6.80;99.90;;;;;;5033506;28;20147;-53
2023/02/05 07:06:58;;;;;;;70.07;30.30;;;6.80;99.90;;;;;;5033330;28;20128;-53
2023/02/05 07:09:24;;;;;;;76.17;32.13;;;6.80;99.90;;;;;;5033362;28;20240;-54
2023/02/05 07:11:50;;;;;;;70.00;30.57;;;6.80;99.90;;;;;;5033332;28;20029;-52
2023/02/05 07:14:16;;;;;;;65.63;28.33;;;6.70;99.90;;;;;;5033470;28;20040;-53
2023/02/05 07:16:42;;;;;;;67.20;28.30;;;6.80;99.90;;;;;;5033062;28;20021;-54
2023/02/05 07:19:08;;;;;;;67.47;28.63;;;6.70;99.90;;;;;;5033258;28;20442;-52
2023/02/05 07:21:34;;;;;;;68.70;29.93;;;6.70;99.90;;;;;;5033225;28;20498;-53
2023/02/05 07:24:00;;;;;;;76.03;31.00;;;6.70;99.90;;;;;;5033177;28;20116;-54
2023/02/05 07:26:26;;;;;;;68.03;29.17;;;6.70;99.90;;;;;;5032920;28;20109;-52
2023/02/05 07:28:51;;;;;;;67.17;28.20;;;6.70;99.90;;;;;;5032911;28;20037;-52
2023/02/05 07:31:18;;;;;;;68.70;29.53;;;6.70;99.90;;;;;;5032686;28;20033;-53
2023/02/05 07:33:45;;;;;;;67.67;28.10;;;6.70;99.90;;;;;;5032886;28;20108;-52
2023/02/05 07:36:15;;;;;;;64.63;29.10;;;6.70;99.90;;;;;;5032937;28;20087;-53
2023/02/05 07:38:41;;;;;;;61.47;26.33;;;6.70;99.90;;;;;;5032666;28;20367;-54
2023/02/05 07:41:09;;;;;;;58.03;24.83;;;6.70;99.90;;;;;;5032722;28;20041;-53
2023/02/05 07:43:35;;;;;;;48.10;22.50;;;6.80;99.90;;;;;;5032627;28;20025;-53
2023/02/05 07:46:04;;;;;;;52.87;23.17;;;6.70;99.90;;;;;;5032960;28;20096;-50
2023/02/05 07:48:30;;;;;;;51.20;21.70;;;6.70;99.90;;;;;;5032607;28;20037;-50
2023/02/05 07:50:56;;;;;;;49.10;22.23;;;6.70;99.90;;;;;;5032563;28;20487;-54
2023/02/05 07:53:22;;;;;;;46.27;20.77;;;6.70;99.90;;;;;;5032475;28;20104;-52
2023/02/05 07:55:48;;;;;;;50.00;20.70;;;6.70;99.90;;;;;;5032401;28;20029;-52
2023/02/05 07:58:14;;;;;;;49.00;20.53;;;6.70;99.90;;;;;;5032494;28;20076;-52
2023/02/05 08:00:40;;;;;;;47.43;19.83;;;6.70;99.90;;;;;;5032552;28;20053;-52
2023/02/05 08:03:05;;;;;;;40.00;19.97;;;6.70;99.90;;;;;;5031229;28;20402;-53
2023/02/05 08:05:32;;;;;;;41.77;19.43;;;6.70;99.90;;;;;;5032086;28;20124;-53
2023/02/05 08:07:57;;;;;;;46.27;19.73;;;6.70;99.90;;;;;;5032490;28;20045;-53
2023/02/05 08:10:23;;;;;;;37.73;18.20;;;6.60;99.90;;;;;;5032082;28;20026;-52
2023/02/05 08:12:49;;;;;;;36.77;16.27;;;6.60;99.90;;;;;;5032435;28;20025;-53
2023/02/05 08:15:15;;;;;;;36.07;17.60;;;6.60;99.90;;;;;;5031920;28;20391;-53
2023/02/05 08:17:40;;;;;;;36.17;16.93;;;6.50;99.90;;;;;;5032327;28;20072;-51
2023/02/05 08:20:07;;;;;;;31.30;15.60;;;6.50;99.90;;;;;;5031956;28;20033;-52
2023/02/05 08:22:35;;;;;;;22.53;11.20;;;6.50;99.90;;;;;;5032175;28;20030;-50
2023/02/05 08:25:01;;;;;;;15.43;7.20;;;6.50;99.90;;;;;;5032415;28;20030;-52
2023/02/05 08:27:26;;;;;;;11.57;6.00;;;6.40;99.90;;;;;;5031802;28;20037;-51
2023/02/05 08:29:52;;;;;;;10.73;5.67;;;6.30;99.90;;;;;;5031568;28;20036;-52
2023/02/05 08:32:18;;;;;;;11.37;6.23;;;6.20;99.90;;;;;;5031982;28;20075;-53
2023/02/05 08:34:44;;;;;;;12.63;6.50;;;6.20;99.90;;;;;;5031602;28;20057;-54
2023/02/05 08:37:10;;;;;;;14.83;6.63;;;6.10;99.90;;;;;;5031564;28;20034;-51
2023/02/05 08:39:36;;;;;;;13.47;6.57;;;6.10;99.90;;;;;;5031529;28;20033;-54
2023/02/05 08:42:02;;;;;;;17.00;7.60;;;6.10;99.90;;;;;;5030967;28;20069;-52
2023/02/05 08:44:28;;;;;;;16.20;6.63;;;6.10;99.90;;;;;;5031802;28;20107;-54
2023/02/05 08:46:54;;;;;;;16.60;6.80;;;6.10;99.90;;;;;;5031339;28;20474;-51
2023/02/05 08:49:20;;;;;;;17.43;6.27;;;6.20;99.90;;;;;;5031144;28;20047;-53
2023/02/05 08:51:46;;;;;;;12.90;5.33;;;6.10;99.90;;;;;;5031464;28;20030;-52
2023/02/05 08:54:12;;;;;;;15.93;5.43;;;6.10;99.90;;;;;;5031116;28;20033;-50
2023/02/05 08:56:39;;;;;;;14.27;4.97;;;6.10;99.90;;;;;;5031084;28;20092;-51
2023/02/05 08:59:05;;;;;;;12.33;3.77;;;6.00;99.90;;;;;;5031271;28;20490;-53
2023/02/05 09:01:31;;;;;;;11.03;3.70;;;6.00;99.90;;;;;;5031301;28;20026;-53
2023/02/05 09:03:57;;;;;;;9.67;3.30;;;6.00;99.90;;;;;;5031191;28;20041;-48
2023/02/05 09:06:22;;;;;;;8.27;3.07;;;6.00;99.90;;;;;;5031040;28;20044;-52
2023/02/05 09:08:48;;;;;;;8.30;2.93;;;6.00;99.90;;;;;;5031055;28;20029;-51
2023/02/05 09:11:19;;;;;;;8.73;3.00;;;6.00;99.90;;;;;;5031312;28;20413;-46
2023/02/05 09:13:45;;;;;;;10.53;2.50;;;6.10;99.90;;;;;;5029651;28;20040;-49
2023/02/05 09:16:11;;;;;;;11.53;3.53;;;6.10;99.90;;;;;;5029857;28;20048;-54
2023/02/05 09:18:37;;;;;;;9.60;2.37;;;6.20;99.90;;;;;;5030684;28;20037;-50
2023/02/05 09:21:06;;;;;;;9.70;3.37;;;6.10;99.90;;;;;;5030813;28;20110;-51
2023/02/05 09:23:32;;;;;;;11.10;3.47;;;6.10;99.90;;;;;;5030749;28;20041;-50
2023/02/05 09:25:58;;;;;;;15.57;4.30;;;6.00;99.90;;;;;;5029554;28;20036;-50
2023/02/05 09:28:24;;;;;;;16.17;4.73;;;6.00;99.90;;;;;;5029479;28;20040;-53
2023/02/05 09:30:51;;;;;;;14.00;4.43;;;6.10;99.90;;;;;;5030678;28;20025;-54
2023/02/05 09:33:17;;;;;;;18.40;4.70;;;6.10;99.90;;;;;;5029440;28;20029;-49
2023/02/05 09:35:43;;;;;;;14.17;3.33;;;6.10;99.90;;;;;;5029288;28;20029;-51
2023/02/05 09:38:12;;;;;;;14.77;3.83;;;6.10;99.90;;;;;;5030474;28;20128;-53
2023/02/05 09:40:58;;;;;;;11.90;3.05;;;6.10;99.90;;;;;;5030533;28;20108;-52
2023/02/05 09:43:48;;;;;;;11.93;2.40;;;6.10;99.90;;;;;;5030500;28;20467;-53
2023/02/05 09:46:22;;;;;;;15.20;2.27;;;6.10;99.90;;;;;;5030591;28;20393;-52
2023/02/05 09:48:50;;;;;;;11.60;2.67;;;6.20;99.90;;;;;;5030435;28;20038;-51
2023/02/05 09:51:19;;;;;;;14.43;2.77;;;6.10;99.90;;;;;;5042730;23;20494;-54
2023/02/05 09:53:53;;;;;;;17.08;2.38;;;6.20;99.90;;;;;;5030003;28;20546;-52
2023/02/05 09:56:20;;;;;;;15.83;2.50;;;6.10;99.90;;;;;;5030263;28;20040;-53
2023/02/05 09:58:50;;;;;;;9.43;2.53;;;6.20;99.90;;;;;;5030397;28;20040;-55
2023/02/05 10:01:26;;;;;;;13.63;2.80;;;6.20;99.90;;;;;;5030366;28;20394;-52
2023/02/05 10:04:00;;;;;;;17.83;3.87;;;6.20;99.90;;;;;;5030262;28;20025;-52
2023/02/05 10:06:33;;;;;;;19.47;2.63;;;6.30;99.90;;;;;;5030393;28;20379;-53
2023/02/05 10:09:28;;;;;;;10.97;2.40;;;6.30;99.90;;;;;;5029065;28;20041;-54
2023/02/05 10:12:12;;;;;;;14.27;2.33;;;6.30;99.90;;;;;;5030617;28;20045;-54
2023/02/05 10:15:22;;;;;;;11.93;2.20;;;6.30;99.90;;;;;;5030249;28;20394;-52
2023/02/05 10:18:04;;;;;;;11.77;1.87;;;6.30;99.90;;;;;;5030081;28;20052;-54
2023/02/05 10:20:39;;;;;;;14.00;1.97;;;6.30;99.90;;;;;;5030270;28;20437;-54
2023/02/05 10:23:52;;;;;;;13.00;2.20;;;6.30;99.90;;;;;;5030279;28;20025;-52
2023/02/05 10:26:19;;;;;;;14.03;2.17;;;6.30;99.90;;;;;;4998579;28;20137;-53
2023/02/05 10:29:00;;;;;;;11.03;2.40;;;6.30;99.90;;;;;;5030023;28;20095;-55
2023/02/05 10:31:41;;;;;;;15.80;2.80;;;6.30;99.90;;;;;;5030159;28;20462;-53
2023/02/05 10:34:34;;;;;;;14.37;1.97;;;6.30;99.90;;;;;;5030073;28;20049;-51
2023/02/05 10:37:05;;;;;;;11.70;2.43;;;6.40;99.90;;;;;;5030241;28;20307;-54
2023/02/05 10:39:31;;;;;;;11.73;2.30;;;6.40;99.90;;;;;;5030096;28;20401;-54
2023/02/05 10:42:16;;;;;;;13.63;2.40;;;6.40;99.90;;;;;;5030509;28;20109;-54
2023/02/05 10:44:45;;;;;;;17.77;2.63;;;6.50;99.90;;;;;;5029809;28;20053;-53
2023/02/05 10:47:18;;;;;;;14.03;2.40;;;6.40;99.90;;;;;;5029871;28;20117;-54
2023/02/05 10:49:53;;;;;;;15.00;2.57;;;6.40;99.90;;;;;;5029860;28;20394;-52
2023/02/05 10:52:19;;;;;;;14.20;2.27;;;6.40;99.90;;;;;;5030216;28;20030;-52
2023/02/05 10:54:45;;;;;;;16.53;2.63;;;6.40;99.90;;;;;;5029708;28;20036;-50
2023/02/05 10:57:17;;;;;;;17.67;2.57;;;6.40;99.90;;;;;;5029952;28;20315;-51
2023/02/05 10:59:59;;;;;;;16.40;2.63;;;6.30;99.90;;;;;;5029834;28;20033;-53
2023/02/05 11:02:36;;;;;;;16.73;2.27;;;6.40;99.90;;;;;;5030089;28;20431;-52
2023/02/05 11:05:12;;;;;;;17.57;2.90;;;6.30;99.90;;;;;;5030640;28;20033;-56
2023/02/05 11:07:44;;;;;;;14.77;3.03;;;6.40;99.90;;;;;;5033374;28;20029;-56
2023/02/05 11:10:19;;;;;;;19.37;3.83;;;6.30;99.90;;;;;;5033296;28;20116;-54
2023/02/05 11:12:48;;;;;;;13.07;2.80;;;6.40;99.90;;;;;;5033632;28;20186;-54
2023/02/05 11:15:25;;;;;;;21.25;3.72;;;6.40;99.90;;;;;;5033334;28;20048;-55
2023/02/05 11:17:57;;;;;;;16.10;3.53;;;6.40;99.90;;;;;;5033380;28;20032;-53
2023/02/05 11:20:34;;;;;;;22.47;3.63;;;6.40;99.90;;;;;;5033354;28;20025;-53
2023/02/05 11:23:21;;;;;;;24.80;3.53;;;6.30;99.90;;;;;;5033297;28;20041;-55
2023/02/05 11:25:54;;;;;;;18.50;3.33;;;6.40;99.90;;;;;;5033034;28;20029;-53
2023/02/05 11:28:31;;;;;;;15.90;3.70;;;6.30;99.90;;;;;;5032910;28;20386;-55
2023/02/05 11:31:16;;;;;;;16.67;3.60;;;6.30;99.90;;;;;;5032912;28;20034;-54
2023/02/05 11:33:42;;;;;;;20.27;4.00;;;6.40;99.90;;;;;;5033073;28;20033;-54
2023/02/05 11:36:23;;;;;;;16.73;3.20;;;6.40;99.90;;;;;;5033036;28;20032;-55
2023/02/05 11:38:56;;;;;;;15.53;3.23;;;6.40;99.90;;;;;;5033011;28;20167;-55
2023/02/05 11:41:50;;;;;;;18.87;3.63;;;6.40;99.90;;;;;;5032822;28;20036;-55
2023/02/05 11:44:22;;;;;;;20.23;3.30;;;6.40;99.90;;;;;;5033136;28;20117;-55
2023/02/05 11:46:55;;;;;;;24.77;4.20;;;6.50;99.90;;;;;;5033001;28;20061;-54
2023/02/05 11:49:29;;;;;;;15.17;3.23;;;6.40;99.90;;;;;;5032734;28;20094;-55
2023/02/05 11:51:56;;;;;;;19.00;3.40;;;6.40;99.90;;;;;;5032627;28;20509;-55
2023/02/05 11:54:29;;;;;;;15.43;2.40;;;6.40;99.90;;;;;;5032569;28;20024;-55
2023/02/05 11:57:05;;;;;;;11.03;1.63;;;6.40;99.90;;;;;;5032396;28;20167;-53
2023/02/05 11:59:32;;;;;;;9.80;1.60;;;6.40;99.90;;;;;;5032557;28;20029;-56
2023/02/05 12:02:27;;;;;;;9.27;1.43;;;6.50;99.90;;;;;;5032709;28;20041;-54
2023/02/05 12:05:11;;;;;;;9.57;1.73;;;6.50;99.90;;;;;;5032371;28;20025;-55
2023/02/05 12:08:00;;;;;;;8.07;1.17;;;6.50;99.90;;;;;;5032664;28;20026;-53
2023/02/05 12:10:37;;;;;;;10.40;1.33;;;6.60;99.90;;;;;;5032346;28;20025;-50
2023/02/05 12:13:13;;;;;;;12.00;1.73;;;6.60;99.90;;;;;;5032198;28;20064;-54
2023/02/05 12:15:53;;;;;;;9.63;1.47;;;6.60;99.90;;;;;;5032071;28;20092;-55
2023/02/05 12:18:36;;;;;;;9.50;1.90;;;6.60;99.90;;;;;;5031604;28;20034;-55
2023/02/05 12:21:12;;;;;;;10.23;1.43;;;6.60;99.90;;;;;;5032358;28;20101;-55
2023/02/05 12:23:55;;;;;;;9.70;2.13;;;6.60;99.90;;;;;;5032014;28;20252;-56
2023/02/05 12:26:33;;;;;;;9.40;1.53;;;6.50;99.90;;;;;;5031825;28;20057;-53
2023/02/05 12:29:39;;;;;;;12.67;1.60;;;6.50;99.90;;;;;;5032204;28;20033;-52
2023/02/05 12:32:20;;;;;;;12.13;1.67;;;6.60;99.90;;;;;;5032128;28;20394;-53
2023/02/05 12:35:10;;;;;;;8.33;1.50;;;6.60;99.90;;;;;;5031701;28;20394;-56
2023/02/05 12:38:00;;;;;;;9.10;1.40;;;6.60;99.90;;;;;;5031873;28;20088;-52
2023/02/05 12:40:44;;;;;;;6.90;1.87;;;6.60;99.90;;;;;;5031769;28;20044;-54
2023/02/05 12:43:31;;;;;;;9.47;1.37;;;6.60;99.90;;;;;;5031914;28;20051;-53
2023/02/05 12:45:57;;;;;;;8.27;1.37;;;6.70;99.90;;;;;;5032223;28;20033;-53
2023/02/05 12:48:37;;;;;;;9.87;1.83;;;6.70;99.90;;;;;;5031422;28;20036;-52
2023/02/05 12:51:18;;;;;;;8.87;1.53;;;6.70;99.90;;;;;;5031426;28;20091;-56
2023/02/05 12:53:56;;;;;;;9.37;1.47;;;6.70;99.90;;;;;;5031427;28;20033;-53
2023/02/05 12:56:53;;;;;;;6.57;1.50;;;6.70;99.90;;;;;;5031335;28;20414;-54
2023/02/05 12:59:41;;;;;;;7.07;1.30;;;6.70;99.90;;;;;;5027829;28;20056;-56
2023/02/05 13:02:19;;;;;;;10.80;1.60;;;6.70;99.90;;;;;;5031666;28;20075;-50
2023/02/05 13:05:20;;;;;;;8.77;1.50;;;6.70;99.90;;;;;;5031187;28;20479;-54